Time;durP1;ratioP1;P1;durP2;ratioP2;P2;SDS_P1;SDS_P2;PMS_P1;PMS_P2;Temp;Humidity;BMP_temperature;BMP_pressure;BME280_temperature;BME280_humidity;BME280_pressure;Samples;Min_cycle;Max_cycle;Signal;HPM_P1;HPM_P2
2022/03/08 00:01:37;;;;;;;3.05;1.70;;;17.90;73.10;;;;;;4230068;28;20222;-71
2022/03/08 00:03:39;;;;;;;1.95;1.40;;;17.90;73.10;;;;;;4226736;28;20731;-71
2022/03/08 00:05:41;;;;;;;2.30;1.70;;;17.90;72.90;;;;;;4229157;28;20635;-71
2022/03/08 00:07:45;;;;;;;2.40;1.73;;;17.90;72.70;;;;;;4229171;28;20232;-71
2022/03/08 00:09:47;;;;;;;2.05;1.85;;;17.90;72.70;;;;;;4229026;28;20206;-71
2022/03/08 00:11:49;;;;;;;2.00;1.63;;;17.80;72.60;;;;;;4228860;28;20275;-71
2022/03/08 00:13:52;;;;;;;2.40;1.88;;;17.80;73.40;;;;;;4227812;28;20247;-71
2022/03/08 00:15:54;;;;;;;2.45;1.67;;;17.90;72.70;;;;;;4228387;28;20230;-71
2022/03/08 00:17:58;;;;;;;1.98;1.60;;;17.90;72.60;;;;;;4229146;28;20234;-71
2022/03/08 00:20:00;;;;;;;2.22;1.77;;;17.80;72.40;;;;;;4227970;28;20578;-71
2022/03/08 00:22:03;;;;;;;3.20;1.90;;;17.80;72.50;;;;;;4228491;28;20703;-71
2022/03/08 00:24:07;;;;;;;2.08;1.73;;;17.80;72.40;;;;;;4226612;28;20251;-71
2022/03/08 00:26:09;;;;;;;1.95;1.65;;;17.80;72.50;;;;;;4229356;28;20286;-71
2022/03/08 00:28:11;;;;;;;2.00;1.60;;;17.80;72.50;;;;;;4229526;28;20291;-71
2022/03/08 00:30:15;;;;;;;2.10;1.73;;;17.80;72.50;;;;;;4228340;28;20222;-71
2022/03/08 00:32:17;;;;;;;3.03;1.58;;;17.80;72.40;;;;;;4224462;28;20630;-71
2022/03/08 00:34:21;;;;;;;2.67;1.67;;;17.80;72.40;;;;;;4228985;28;20265;-71
2022/03/08 00:36:23;;;;;;;2.50;1.90;;;17.70;72.30;;;;;;4228639;28;20271;-71
2022/03/08 00:38:27;;;;;;;3.40;1.88;;;17.80;72.40;;;;;;4229033;28;20213;-71
2022/03/08 00:40:29;;;;;;;2.08;1.88;;;17.70;72.20;;;;;;4227365;28;20685;-71
2022/03/08 00:42:32;;;;;;;2.42;1.75;;;17.70;72.10;;;;;;4229245;28;20213;-71
2022/03/08 00:44:34;;;;;;;1.92;1.75;;;17.70;72.40;;;;;;4228862;28;20222;-71
2022/03/08 00:46:36;;;;;;;2.10;1.70;;;17.70;72.20;;;;;;4227261;28;20283;-71
2022/03/08 00:48:39;;;;;;;3.55;2.00;;;17.70;72.30;;;;;;4227628;28;20221;-71
2022/03/08 00:50:42;;;;;;;1.92;1.70;;;17.70;72.10;;;;;;4228886;28;20262;-71
2022/03/08 00:52:45;;;;;;;2.92;1.67;;;17.70;72.10;;;;;;4228522;28;20218;-71
2022/03/08 00:54:47;;;;;;;2.08;1.63;;;17.70;72.10;;;;;;4227731;28;20283;-71
2022/03/08 00:56:49;;;;;;;2.35;2.10;;;17.70;72.10;;;;;;4227386;28;20274;-71
2022/03/08 00:58:52;;;;;;;2.33;1.80;;;17.70;72.10;;;;;;4227645;28;20629;-71
2022/03/08 01:00:54;;;;;;;1.98;1.60;;;17.70;72.20;;;;;;4224847;28;20686;-71
2022/03/08 01:02:57;;;;;;;1.92;1.63;;;17.60;72.10;;;;;;4224324;28;20213;-71
2022/03/08 01:04:59;;;;;;;1.70;1.60;;;17.60;72.00;;;;;;4226780;28;20270;-71
2022/03/08 01:07:06;;;;;;;2.85;1.90;;;17.60;72.00;;;;;;4228009;28;20271;-71
2022/03/08 01:09:08;;;;;;;2.97;1.90;;;17.60;72.00;;;;;;4227227;28;20267;-71
2022/03/08 01:11:10;;;;;;;1.70;1.60;;;17.60;71.90;;;;;;4227154;28;20606;-71
2022/03/08 01:13:13;;;;;;;3.25;2.08;;;17.60;71.90;;;;;;4227080;28;20230;-71
2022/03/08 01:15:16;;;;;;;2.15;1.55;;;17.60;71.90;;;;;;4227970;28;20723;-71
2022/03/08 01:17:18;;;;;;;2.05;1.85;;;17.60;72.00;;;;;;4227396;28;20709;-71
2022/03/08 01:19:20;;;;;;;2.53;1.60;;;17.60;72.00;;;;;;4227999;28;20283;-70
2022/03/08 01:21:23;;;;;;;2.38;1.70;;;17.60;72.00;;;;;;4222135;28;20245;-71
2022/03/08 01:23:27;;;;;;;3.00;2.00;;;17.60;71.90;;;;;;4226212;28;20267;-76
2022/03/08 01:25:29;;;;;;;3.03;2.17;;;17.60;71.90;;;;;;4226448;28;20654;-76
2022/03/08 01:27:32;;;;;;;2.20;2.00;;;17.60;71.80;;;;;;4229516;28;20282;-76
2022/03/08 01:29:34;;;;;;;2.53;1.95;;;17.60;71.90;;;;;;4229352;28;20271;-76
2022/03/08 01:31:36;;;;;;;2.78;1.90;;;17.50;71.80;;;;;;4228119;28;20218;-76
2022/03/08 01:33:39;;;;;;;2.80;1.92;;;17.50;71.90;;;;;;4228932;28;20306;-76
2022/03/08 01:35:42;;;;;;;2.25;1.67;;;17.50;71.80;;;;;;4229888;28;20222;-76
2022/03/08 01:37:44;;;;;;;2.70;2.10;;;17.50;71.80;;;;;;4225527;28;20221;-76
2022/03/08 01:39:48;;;;;;;2.42;1.85;;;17.50;71.90;;;;;;4227675;28;20267;-76
2022/03/08 01:41:50;;;;;;;2.10;1.90;;;17.50;71.80;;;;;;4228498;28;20233;-76
2022/03/08 01:43:52;;;;;;;2.05;1.80;;;17.50;71.80;;;;;;4230147;28;20282;-76
2022/03/08 01:45:55;;;;;;;2.45;1.85;;;17.50;71.70;;;;;;4229853;28;20278;-76
2022/03/08 01:47:57;;;;;;;3.45;1.77;;;17.50;71.70;;;;;;4227741;28;20283;-76
2022/03/08 01:49:59;;;;;;;2.08;1.88;;;17.50;71.60;;;;;;4229858;28;20221;-76
2022/03/08 01:52:02;;;;;;;2.35;2.00;;;17.50;71.70;;;;;;4229802;28;20246;-76
2022/03/08 01:54:06;;;;;;;2.30;2.03;;;17.40;71.60;;;;;;4228979;28;20294;-76
2022/03/08 01:56:10;;;;;;;2.33;2.13;;;17.50;71.70;;;;;;4226278;28;20252;-76
2022/03/08 01:58:12;;;;;;;2.85;2.05;;;17.40;71.60;;;;;;4225362;28;20259;-76
2022/03/08 02:00:20;;;;;;;2.40;2.10;;;17.50;71.70;;;;;;4229946;28;20221;-76
2022/03/08 02:02:24;;;;;;;2.17;1.98;;;17.40;71.50;;;;;;4225303;28;20268;-76
2022/03/08 02:04:26;;;;;;;2.25;2.05;;;17.40;71.50;;;;;;4225878;28;20230;-76
2022/03/08 02:06:29;;;;;;;2.22;1.80;;;17.40;71.40;;;;;;4229651;28;20221;-76
2022/03/08 02:08:31;;;;;;;2.45;1.92;;;17.40;71.60;;;;;;4228370;28;20736;-76
2022/03/08 02:10:34;;;;;;;2.05;1.85;;;17.40;71.50;;;;;;4227568;28;20251;-76
2022/03/08 02:12:38;;;;;;;1.95;1.70;;;17.40;71.40;;;;;;4228182;28;20258;-76
2022/03/08 02:14:41;;;;;;;1.90;1.65;;;17.30;71.40;;;;;;4227129;28;20235;-76
2022/03/08 02:16:44;;;;;;;1.60;1.50;;;17.40;71.40;;;;;;4224327;28;20254;-76
2022/03/08 02:18:47;;;;;;;1.77;1.67;;;17.40;71.40;;;;;;4229828;28;20330;-76
2022/03/08 02:20:49;;;;;;;2.28;1.73;;;17.40;71.30;;;;;;4224639;28;20350;-76
2022/03/08 02:22:53;;;;;;;2.38;2.00;;;17.40;71.40;;;;;;4229233;28;20217;-76
2022/03/08 02:24:55;;;;;;;2.80;1.92;;;17.40;71.40;;;;;;4227240;28;20221;-76
2022/03/08 02:27:00;;;;;;;2.30;1.80;;;17.30;71.20;;;;;;4229036;28;20239;-76
2022/03/08 02:29:06;;;;;;;2.50;2.17;;;17.30;71.20;;;;;;4229607;28;20661;-76
2022/03/08 02:31:08;;;;;;;2.05;1.67;;;17.30;71.20;;;;;;4232179;28;20221;-76
2022/03/08 02:33:11;;;;;;;3.63;2.08;;;17.30;71.40;;;;;;4233102;28;20226;-76
2022/03/08 02:35:15;;;;;;;2.25;1.83;;;17.30;71.20;;;;;;4228259;28;20251;-76
2022/03/08 02:37:19;;;;;;;3.00;1.90;;;17.30;71.40;;;;;;4229733;28;20221;-76
2022/03/08 02:39:22;;;;;;;2.28;2.08;;;17.30;71.10;;;;;;4228080;28;20214;-76
2022/03/08 02:41:25;;;;;;;1.95;1.67;;;17.30;71.10;;;;;;4229655;28;20306;-76
2022/03/08 02:43:28;;;;;;;2.72;2.05;;;17.30;71.10;;;;;;4229706;28;20218;-76
2022/03/08 02:45:30;;;;;;;2.20;1.90;;;17.30;71.10;;;;;;4229342;28;20209;-76
2022/03/08 02:47:33;;;;;;;2.95;2.22;;;17.30;71.00;;;;;;4230147;28;20262;-76
2022/03/08 02:49:35;;;;;;;2.15;1.95;;;17.30;71.10;;;;;;4227964;28;20250;-76
2022/03/08 02:51:38;;;;;;;2.00;1.80;;;17.30;71.00;;;;;;4226011;28;20218;-76
2022/03/08 02:53:40;;;;;;;2.63;2.13;;;17.20;71.00;;;;;;4227381;28;20256;-76
2022/03/08 02:55:44;;;;;;;3.35;2.10;;;17.20;71.70;;;;;;4228945;28;20290;-76
2022/03/08 02:57:47;;;;;;;2.70;1.90;;;17.20;70.90;;;;;;4226990;28;20251;-76
2022/03/08 02:59:49;;;;;;;2.28;2.03;;;17.20;70.90;;;;;;4225651;28;20222;-76
2022/03/08 03:01:51;;;;;;;2.75;2.28;;;17.20;70.80;;;;;;4229808;28;20233;-76
2022/03/08 03:03:54;;;;;;;2.95;2.03;;;17.20;70.80;;;;;;4226429;28;20217;-76
2022/03/08 03:05:56;;;;;;;2.45;1.85;;;17.20;70.90;;;;;;4229887;28;20221;-76
2022/03/08 03:07:59;;;;;;;3.28;2.25;;;17.20;70.90;;;;;;4228564;28;20225;-76
2022/03/08 03:10:02;;;;;;;2.15;1.98;;;17.20;70.90;;;;;;4227064;28;20222;-71
2022/03/08 03:12:07;;;;;;;3.13;1.95;;;17.20;70.80;;;;;;4226107;28;20221;-71
2022/03/08 03:14:10;;;;;;;2.67;2.08;;;17.20;70.80;;;;;;4220997;28;20209;-71
2022/03/08 03:16:12;;;;;;;3.17;2.08;;;17.20;70.60;;;;;;4226650;28;20214;-71
2022/03/08 03:18:15;;;;;;;2.00;1.80;;;17.10;70.60;;;;;;4227036;28;21723;-71
2022/03/08 03:20:20;;;;;;;2.30;2.05;;;17.10;70.60;;;;;;4226461;28;20221;-71
2022/03/08 03:22:22;;;;;;;2.35;2.00;;;17.10;71.40;;;;;;4225644;28;20290;-71
2022/03/08 03:24:24;;;;;;;2.50;2.03;;;17.10;70.50;;;;;;4225647;28;20210;-71
2022/03/08 03:26:27;;;;;;;2.17;1.98;;;17.10;70.50;;;;;;4227055;28;20217;-71
2022/03/08 03:28:31;;;;;;;2.42;2.13;;;17.10;70.60;;;;;;4226926;28;20239;-70
2022/03/08 03:30:33;;;;;;;2.30;1.85;;;17.10;70.50;;;;;;4226195;28;20271;-71
2022/03/08 03:32:36;;;;;;;2.28;1.80;;;17.10;70.50;;;;;;4225266;28;20263;-71
2022/03/08 03:34:38;;;;;;;2.17;1.88;;;17.10;71.40;;;;;;4224807;28;20256;-71
2022/03/08 03:36:41;;;;;;;2.38;2.15;;;17.10;71.40;;;;;;4225104;28;20275;-72
2022/03/08 03:38:43;;;;;;;2.25;2.05;;;17.10;70.50;;;;;;4227582;28;20221;-72
2022/03/08 03:40:45;;;;;;;2.42;2.08;;;17.10;70.70;;;;;;4228965;28;20278;-70
2022/03/08 03:42:48;;;;;;;2.13;1.92;;;17.10;70.60;;;;;;4229030;28;20245;-71
2022/03/08 03:44:51;;;;;;;2.10;1.90;;;17.10;70.50;;;;;;4228922;28;20229;-71
2022/03/08 03:46:54;;;;;;;2.10;1.90;;;17.10;70.50;;;;;;4227452;28;20214;-71
2022/03/08 03:48:56;;;;;;;2.10;1.90;;;17.10;70.30;;;;;;4228283;28;20270;-71
2022/03/08 03:50:58;;;;;;;2.65;1.95;;;17.10;70.40;;;;;;4228723;28;20226;-71
2022/03/08 03:53:01;;;;;;;3.25;2.13;;;17.00;70.30;;;;;;4226262;28;20218;-71
2022/03/08 03:55:05;;;;;;;2.03;1.80;;;17.10;70.40;;;;;;4229121;28;20225;-71
2022/03/08 03:57:08;;;;;;;2.25;2.05;;;17.00;70.30;;;;;;4224303;28;20209;-71
2022/03/08 03:59:10;;;;;;;2.65;2.30;;;17.10;70.40;;;;;;4228092;28;20210;-71
2022/03/08 04:01:15;;;;;;;2.20;2.00;;;17.00;70.20;;;;;;4228474;28;20624;-71
2022/03/08 04:03:18;;;;;;;2.53;1.90;;;17.00;70.20;;;;;;4227335;28;20210;-71
2022/03/08 04:05:21;;;;;;;2.20;2.00;;;17.00;70.20;;;;;;4228120;28;20253;-71
2022/03/08 04:07:23;;;;;;;2.30;2.10;;;17.00;70.20;;;;;;4227109;28;20310;-71
2022/03/08 04:09:26;;;;;;;2.35;2.15;;;17.00;70.20;;;;;;4226027;28;20271;-70
2022/03/08 04:11:28;;;;;;;2.50;2.20;;;17.00;70.10;;;;;;4222436;28;20670;-71
2022/03/08 04:13:30;;;;;;;2.90;2.35;;;17.00;70.00;;;;;;4226285;28;20657;-71
2022/03/08 04:15:32;;;;;;;2.67;1.85;;;17.00;70.10;;;;;;4228098;28;20233;-71
2022/03/08 04:17:36;;;;;;;2.10;1.88;;;17.00;70.20;;;;;;4226833;28;20233;-71
2022/03/08 04:19:40;;;;;;;2.00;1.80;;;17.00;70.20;;;;;;4227700;28;20222;-71
2022/03/08 04:21:42;;;;;;;2.58;2.00;;;17.00;70.10;;;;;;4226205;28;20221;-71
2022/03/08 04:23:45;;;;;;;2.22;2.03;;;17.00;70.80;;;;;;4228001;28;20223;-71
2022/03/08 04:25:47;;;;;;;2.13;1.80;;;17.00;70.00;;;;;;4228515;28;20719;-70
2022/03/08 04:27:50;;;;;;;2.58;2.38;;;16.90;69.90;;;;;;4229074;28;20275;-71
2022/03/08 04:29:52;;;;;;;2.70;2.10;;;17.00;70.00;;;;;;4228830;28;20262;-70
2022/03/08 04:31:54;;;;;;;2.95;2.00;;;16.90;70.60;;;;;;4227761;28;20218;-71
2022/03/08 04:33:58;;;;;;;2.35;2.15;;;16.90;69.90;;;;;;4228820;28;20275;-71
2022/03/08 04:36:00;;;;;;;3.22;2.10;;;16.90;69.80;;;;;;4229291;28;20956;-71
2022/03/08 04:38:03;;;;;;;2.35;1.98;;;16.90;69.70;;;;;;4223966;28;20223;-71
2022/03/08 04:40:07;;;;;;;2.33;2.00;;;16.90;69.80;;;;;;4228897;28;20278;-71
2022/03/08 04:42:09;;;;;;;2.80;2.10;;;16.90;69.80;;;;;;4229291;28;20290;-71
2022/03/08 04:44:11;;;;;;;2.17;1.98;;;16.90;69.80;;;;;;4228754;28;20214;-71
2022/03/08 04:46:14;;;;;;;2.70;2.30;;;16.90;69.70;;;;;;4228617;28;20229;-71
2022/03/08 04:48:16;;;;;;;3.22;2.08;;;16.90;69.70;;;;;;4229127;28;20225;-71
2022/03/08 04:50:20;;;;;;;2.10;1.90;;;16.90;69.70;;;;;;4229250;28;20214;-71
2022/03/08 04:52:22;;;;;;;2.28;2.05;;;16.90;69.90;;;;;;4225652;28;20218;-71
2022/03/08 04:54:25;;;;;;;2.75;2.17;;;16.80;69.50;;;;;;4225605;28;20218;-71
2022/03/08 04:56:27;;;;;;;2.60;2.10;;;16.80;69.70;;;;;;4228790;28;20230;-71
2022/03/08 04:58:29;;;;;;;2.60;2.38;;;16.90;69.70;;;;;;4226102;28;20262;-71
2022/03/08 05:00:32;;;;;;;2.15;1.95;;;16.90;69.60;;;;;;4226037;28;20225;-71
2022/03/08 05:02:35;;;;;;;2.35;2.10;;;16.80;69.40;;;;;;4227295;28;20233;-71
2022/03/08 05:04:37;;;;;;;2.50;2.20;;;16.80;69.50;;;;;;4228131;28;20222;-71
2022/03/08 05:06:41;;;;;;;2.25;2.05;;;16.80;69.50;;;;;;4228328;28;20213;-71
2022/03/08 05:08:43;;;;;;;2.40;2.20;;;16.80;69.50;;;;;;4224609;28;20636;-71
2022/03/08 05:10:45;;;;;;;4.20;2.00;;;16.80;69.40;;;;;;4224689;28;20214;-71
2022/03/08 05:12:48;;;;;;;2.35;2.10;;;16.80;69.40;;;;;;4224169;28;20226;-70
2022/03/08 05:14:50;;;;;;;2.53;2.30;;;16.80;69.60;;;;;;4227852;28;20243;-71
2022/03/08 05:16:53;;;;;;;2.65;2.03;;;16.80;69.50;;;;;;4228551;28;20246;-71
2022/03/08 05:18:55;;;;;;;2.80;2.30;;;16.80;69.50;;;;;;4226114;28;20222;-71
2022/03/08 05:20:57;;;;;;;2.50;2.30;;;16.80;70.40;;;;;;4227578;28;20281;-71
2022/03/08 05:23:01;;;;;;;3.05;2.40;;;16.70;69.40;;;;;;4228210;28;20249;-71
2022/03/08 05:25:04;;;;;;;4.30;2.55;;;16.80;70.30;;;;;;4224178;28;20230;-71
2022/03/08 05:27:07;;;;;;;2.80;2.38;;;16.80;69.30;;;;;;4228559;28;20275;-71
2022/03/08 05:29:10;;;;;;;3.53;2.20;;;16.80;69.30;;;;;;4225492;28;20218;-71
2022/03/08 05:31:13;;;;;;;2.78;2.30;;;16.70;69.20;;;;;;4227240;28;20274;-71
2022/03/08 05:33:15;;;;;;;2.72;1.90;;;16.70;69.40;;;;;;4227161;28;20723;-71
2022/03/08 05:35:17;;;;;;;2.47;2.27;;;16.70;69.30;;;;;;4227979;28;20286;-71
2022/03/08 05:37:20;;;;;;;2.83;2.28;;;16.70;69.30;;;;;;4228193;28;20226;-71
2022/03/08 05:39:24;;;;;;;3.17;2.10;;;16.70;69.20;;;;;;4226168;28;20278;-71
2022/03/08 05:41:26;;;;;;;2.80;2.50;;;16.70;69.20;;;;;;4226746;28;20267;-71
2022/03/08 05:43:29;;;;;;;3.13;2.30;;;16.70;69.20;;;;;;4228176;28;20301;-71
2022/03/08 05:45:31;;;;;;;3.05;2.22;;;16.70;69.30;;;;;;4221475;28;20271;-71
2022/03/08 05:47:33;;;;;;;2.92;2.25;;;16.70;69.40;;;;;;4227143;28;20267;-71
2022/03/08 05:49:36;;;;;;;2.20;2.00;;;16.70;69.20;;;;;;4227985;28;20218;-70
2022/03/08 05:51:38;;;;;;;2.65;2.08;;;16.70;69.30;;;;;;4227541;28;20575;-71
2022/03/08 05:53:40;;;;;;;3.63;2.42;;;16.70;69.50;;;;;;4227598;28;20217;-71
2022/03/08 05:55:44;;;;;;;3.90;2.40;;;16.60;69.10;;;;;;4226584;28;20251;-71
2022/03/08 05:57:46;;;;;;;2.80;2.35;;;16.50;68.70;;;;;;4225055;28;20206;-71
2022/03/08 05:59:49;;;;;;;3.05;2.20;;;16.60;69.10;;;;;;4226228;28;20266;-71
2022/03/08 06:01:52;;;;;;;3.47;2.42;;;16.70;68.90;;;;;;4226464;28;20639;-70
2022/03/08 06:03:54;;;;;;;3.50;2.40;;;16.60;68.90;;;;;;4226957;28;20245;-71
2022/03/08 06:05:56;;;;;;;3.47;2.30;;;16.70;69.00;;;;;;4230659;28;20217;-71
2022/03/08 06:07:59;;;;;;;4.03;2.63;;;16.70;68.50;;;;;;4231133;28;20699;-71
2022/03/08 06:10:01;;;;;;;3.47;2.67;;;16.80;68.30;;;;;;4230383;28;20223;-71
2022/03/08 06:12:06;;;;;;;3.10;2.80;;;16.80;68.20;;;;;;4229380;28;20213;-71
2022/03/08 06:14:09;;;;;;;4.15;2.78;;;16.90;68.00;;;;;;4231414;28;20267;-71
2022/03/08 06:16:13;;;;;;;3.72;2.90;;;16.90;68.00;;;;;;4230704;28;20266;-71
2022/03/08 06:18:15;;;;;;;3.78;2.30;;;16.90;67.80;;;;;;4229370;28;20221;-71
2022/03/08 06:20:18;;;;;;;3.83;3.10;;;16.90;67.70;;;;;;4229186;28;20217;-71
2022/03/08 06:22:20;;;;;;;4.28;3.15;;;16.90;68.00;;;;;;4231157;28;20243;-71
2022/03/08 06:24:22;;;;;;;3.90;3.10;;;16.90;67.80;;;;;;4229299;28;20230;-71
2022/03/08 06:26:25;;;;;;;3.45;3.15;;;17.00;68.00;;;;;;4227373;28;20688;-71
2022/03/08 06:28:28;;;;;;;4.38;2.53;;;17.00;68.00;;;;;;4231405;28;20222;-76
2022/03/08 06:30:31;;;;;;;4.57;2.90;;;17.00;68.30;;;;;;4230442;28;20263;-76
2022/03/08 06:32:33;;;;;;;3.28;2.75;;;17.00;68.20;;;;;;4230742;28;20622;-76
2022/03/08 06:34:35;;;;;;;3.38;3.08;;;17.10;68.30;;;;;;4232146;28;20213;-76
2022/03/08 06:36:41;;;;;;;3.10;2.75;;;17.10;68.30;;;;;;4232915;28;20218;-76
2022/03/08 06:38:43;;;;;;;3.70;2.72;;;17.10;68.50;;;;;;4230608;28;20267;-76
2022/03/08 06:40:45;;;;;;;3.35;3.00;;;17.10;68.40;;;;;;4232721;28;20221;-76
2022/03/08 06:42:49;;;;;;;3.45;2.72;;;17.10;68.60;;;;;;4231539;28;20221;-76
2022/03/08 06:44:53;;;;;;;4.00;3.00;;;17.10;68.80;;;;;;4232703;28;20218;-76
2022/03/08 06:46:55;;;;;;;4.13;3.20;;;17.10;68.50;;;;;;4232796;28;20266;-76
2022/03/08 06:48:58;;;;;;;3.35;2.83;;;17.20;68.80;;;;;;4229171;28;20316;-76
2022/03/08 06:51:00;;;;;;;3.67;3.25;;;17.20;69.00;;;;;;4229507;28;20218;-76
2022/03/08 06:53:03;;;;;;;4.53;2.92;;;17.20;69.00;;;;;;4229425;28;20263;-76
2022/03/08 06:55:06;;;;;;;4.75;3.15;;;17.20;69.40;;;;;;4231639;28;20278;-76
2022/03/08 06:57:09;;;;;;;4.90;3.17;;;17.20;68.90;;;;;;4226776;28;20213;-76
2022/03/08 06:59:11;;;;;;;5.35;3.70;;;17.20;69.30;;;;;;4228732;28;20218;-76
2022/03/08 07:01:15;;;;;;;6.18;2.92;;;17.20;69.40;;;;;;4232559;28;20259;-76
2022/03/08 07:03:17;;;;;;;4.47;3.40;;;17.20;69.30;;;;;;4232465;28;21144;-76
2022/03/08 07:05:20;;;;;;;4.35;3.05;;;17.30;69.20;;;;;;4229070;28;20260;-77
2022/03/08 07:07:22;;;;;;;14.88;3.30;;;17.20;69.60;;;;;;4229603;27;20258;-77
2022/03/08 07:09:25;;;;;;;4.93;3.10;;;17.20;70.30;;;;;;4229244;28;20213;-77
2022/03/08 07:11:27;;;;;;;7.72;3.30;;;17.30;72.40;;;;;;4222132;28;20303;-76
2022/03/08 07:13:29;;;;;;;8.07;2.95;;;17.30;70.30;;;;;;4226605;28;20210;-76
2022/03/08 07:15:32;;;;;;;3.10;2.60;;;17.50;69.30;;;;;;4229855;28;20611;-76
2022/03/08 07:17:36;;;;;;;4.05;2.92;;;17.80;70.60;;;;;;4225395;28;20259;-77
2022/03/08 07:19:38;;;;;;;8.07;3.15;;;17.90;71.50;;;;;;4226043;28;20221;-76
2022/03/08 07:21:41;;;;;;;3.25;2.95;;;18.00;70.30;;;;;;4225082;28;20221;-76
2022/03/08 07:23:43;;;;;;;4.65;2.85;;;18.20;69.10;;;;;;4225576;28;20320;-76
2022/03/08 07:25:46;;;;;;;5.32;2.83;;;18.20;68.20;;;;;;4226031;28;20271;-76
2022/03/08 07:27:48;;;;;;;7.03;2.80;;;18.30;70.60;;;;;;4224248;28;20278;-77
2022/03/08 07:29:50;;;;;;;5.50;3.13;;;18.30;69.20;;;;;;4222789;28;20222;-76
2022/03/08 07:31:53;;;;;;;5.38;3.00;;;18.40;67.80;;;;;;4224260;27;20795;-75
2022/03/08 07:33:57;;;;;;;7.18;3.33;;;18.50;67.10;;;;;;4224422;28;20235;-76
2022/03/08 07:36:00;;;;;;;6.32;2.83;;;18.70;70.00;;;;;;4227009;28;20267;-77
2022/03/08 07:38:02;;;;;;;4.15;2.58;;;18.80;70.80;;;;;;4225969;28;20270;-76
2022/03/08 07:40:07;;;;;;;3.60;2.97;;;18.90;71.20;;;;;;4226270;28;20214;-76
2022/03/08 07:42:09;;;;;;;5.28;3.20;;;18.90;71.00;;;;;;4226138;28;20214;-77
2022/03/08 07:44:11;;;;;;;4.60;2.38;;;19.00;71.00;;;;;;4222389;27;20237;-77
2022/03/08 07:46:15;;;;;;;3.30;2.35;;;19.00;71.30;;;;;;4221155;28;20639;-76
2022/03/08 07:48:18;;;;;;;4.55;2.92;;;19.10;71.60;;;;;;4224852;28;20217;-77
2022/03/08 07:50:22;;;;;;;4.03;2.70;;;19.10;71.40;;;;;;4224853;28;20614;-75
2022/03/08 07:52:24;;;;;;;3.67;3.28;;;19.20;71.10;;;;;;4225887;28;20206;-76
2022/03/08 07:54:26;;;;;;;3.25;2.95;;;19.30;70.80;;;;;;4225350;28;20218;-76
2022/03/08 07:56:29;;;;;;;3.45;2.65;;;19.30;70.50;;;;;;4224055;28;20271;-77
2022/03/08 07:58:31;;;;;;;3.38;3.08;;;19.30;70.40;;;;;;4225310;28;20218;-76
2022/03/08 08:00:34;;;;;;;3.30;3.00;;;19.30;70.70;;;;;;4226364;28;20266;-77
2022/03/08 08:02:37;;;;;;;3.00;2.70;;;19.40;71.30;;;;;;4223148;28;20267;-77
2022/03/08 08:04:40;;;;;;;4.55;2.97;;;19.40;71.30;;;;;;4223588;28;20238;-76
2022/03/08 08:06:43;;;;;;;3.25;2.85;;;19.40;70.10;;;;;;4224058;28;20214;-77
2022/03/08 08:08:45;;;;;;;5.43;2.78;;;19.50;70.00;;;;;;4226012;28;20210;-77
2022/03/08 08:10:48;;;;;;;2.83;2.53;;;19.60;70.60;;;;;;4222807;28;20210;-77
2022/03/08 08:12:50;;;;;;;4.82;3.15;;;19.60;70.50;;;;;;4216233;28;20271;-77
2022/03/08 08:14:52;;;;;;;4.63;2.65;;;19.60;70.90;;;;;;4221563;28;20217;-77
2022/03/08 08:16:55;;;;;;;5.00;3.13;;;19.50;71.20;;;;;;4220788;28;20229;-76
2022/03/08 08:18:58;;;;;;;3.22;2.33;;;19.50;71.10;;;;;;4221732;28;20223;-78
2022/03/08 08:21:02;;;;;;;3.13;2.72;;;19.60;71.20;;;;;;4225885;28;20529;-77
2022/03/08 08:23:05;;;;;;;4.95;2.80;;;19.70;71.20;;;;;;4219634;28;20977;-78
2022/03/08 08:25:10;;;;;;;5.55;2.60;;;19.80;71.00;;;;;;4223450;28;20242;-78
2022/03/08 08:27:12;;;;;;;2.47;2.28;;;19.80;70.80;;;;;;4216767;28;20218;-77
2022/03/08 08:29:15;;;;;;;6.82;3.30;;;19.80;71.00;;;;;;4215665;27;20270;-77
2022/03/08 08:31:17;;;;;;;5.68;2.50;;;19.80;71.20;;;;;;4222816;28;20675;-77
2022/03/08 08:33:19;;;;;;;3.13;2.83;;;19.80;70.60;;;;;;4217929;28;20307;-76
2022/03/08 08:35:22;;;;;;;4.00;2.53;;;19.70;70.80;;;;;;4219690;28;20217;-77
2022/03/08 08:37:24;;;;;;;4.53;2.20;;;19.70;72.50;;;;;;4224458;28;20634;-77
2022/03/08 08:39:28;;;;;;;6.20;2.60;;;19.80;72.20;;;;;;4222239;28;20255;-77
2022/03/08 08:41:31;;;;;;;3.00;2.47;;;19.90;71.20;;;;;;4214451;28;20270;-78
2022/03/08 08:43:33;;;;;;;3.33;2.53;;;20.00;71.00;;;;;;4219789;28;20213;-77
2022/03/08 08:45:36;;;;;;;5.28;2.85;;;20.10;69.60;;;;;;4220913;28;20233;-77
2022/03/08 08:47:39;;;;;;;3.80;2.90;;;20.10;69.60;;;;;;4222102;27;20221;-77
2022/03/08 08:49:41;;;;;;;4.43;2.28;;;20.10;68.80;;;;;;4223837;28;20326;-77
2022/03/08 08:51:44;;;;;;;3.53;2.40;;;20.10;70.10;;;;;;4221536;27;20210;-76
2022/03/08 08:53:46;;;;;;;5.63;2.28;;;20.10;72.30;;;;;;4223138;28;20242;-77
2022/03/08 08:55:50;;;;;;;17.15;3.35;;;20.20;69.90;;;;;;4222632;28;20221;-77
2022/03/08 08:57:52;;;;;;;24.35;3.92;;;20.30;69.80;;;;;;4221853;28;20271;-71
2022/03/08 08:59:55;;;;;;;12.90;3.20;;;20.40;70.00;;;;;;4222663;28;20469;-71
2022/03/08 09:01:58;;;;;;;10.45;3.45;;;20.30;69.10;;;;;;4221909;28;20218;-72
2022/03/08 09:04:00;;;;;;;15.68;2.97;;;20.30;68.60;;;;;;4222921;27;20222;-72
2022/03/08 09:06:03;;;;;;;7.07;3.00;;;20.30;69.10;;;;;;4217277;28;20862;-71
2022/03/08 09:08:05;;;;;;;6.13;2.53;;;20.00;71.10;;;;;;4220063;28;21432;-71
2022/03/08 09:10:09;;;;;;;5.75;2.90;;;20.10;71.50;;;;;;4217445;28;20263;-69
2022/03/08 09:12:12;;;;;;;4.28;2.88;;;20.20;72.50;;;;;;4221719;28;20214;-69
2022/03/08 09:14:15;;;;;;;5.65;2.08;;;20.40;72.90;;;;;;4218523;28;20218;-70
2022/03/08 09:16:17;;;;;;;5.05;2.50;;;20.50;73.80;;;;;;4222506;27;20271;-70
2022/03/08 09:18:19;;;;;;;7.22;2.47;;;20.60;72.70;;;;;;4220729;28;20282;-70
2022/03/08 09:20:25;;;;;;;4.82;2.33;;;20.60;70.20;;;;;;4218953;28;20217;-70
2022/03/08 09:22:28;;;;;;;9.68;2.33;;;20.60;71.00;;;;;;4222928;28;20243;-70
2022/03/08 09:24:32;;;;;;;4.05;2.50;;;20.50;72.70;;;;;;4228239;27;20214;-71
2022/03/08 09:26:35;;;;;;;5.50;2.72;;;20.50;75.40;;;;;;4218258;28;20252;-70
2022/03/08 09:28:38;;;;;;;3.65;2.50;;;20.50;74.50;;;;;;4225315;27;20217;-70
2022/03/08 09:30:42;;;;;;;3.90;2.20;;;20.60;75.20;;;;;;4221851;28;20274;-70
2022/03/08 09:32:45;;;;;;;4.68;2.65;;;20.60;75.50;;;;;;4229940;27;20210;-71
2022/03/08 09:34:47;;;;;;;5.95;2.42;;;20.60;71.90;;;;;;4221641;28;20294;-71
2022/03/08 09:36:50;;;;;;;2.97;2.50;;;20.60;71.60;;;;;;4223895;28;20657;-70
2022/03/08 09:38:52;;;;;;;3.35;2.45;;;20.70;72.90;;;;;;4223509;28;20264;-70
2022/03/08 09:40:55;;;;;;;6.72;2.67;;;20.60;74.90;;;;;;4225345;28;20214;-70
2022/03/08 09:42:57;;;;;;;2.45;2.20;;;20.70;74.80;;;;;;4223050;28;20221;-70
2022/03/08 09:45:01;;;;;;;5.93;2.67;;;20.70;76.00;;;;;;4229198;27;20290;-69
2022/03/08 09:47:05;;;;;;;4.70;2.58;;;20.80;74.70;;;;;;4216994;28;20275;-71
2022/03/08 09:49:08;;;;;;;3.83;2.50;;;20.70;71.30;;;;;;4214187;28;20221;-69
2022/03/08 09:51:11;;;;;;;4.82;2.42;;;20.80;71.20;;;;;;4222000;28;20609;-70
2022/03/08 09:53:14;;;;;;;4.55;2.38;;;20.80;70.40;;;;;;4221174;28;20264;-69
2022/03/08 09:55:17;;;;;;;5.20;2.30;;;20.70;71.30;;;;;;4224306;28;20240;-69
2022/03/08 09:57:22;;;;;;;3.28;1.95;;;20.70;73.30;;;;;;4221941;28;20621;-70
2022/03/08 09:59:29;;;;;;;5.10;2.70;;;20.70;73.50;;;;;;4219737;28;20734;-71
2022/03/08 10:01:33;;;;;;;3.60;2.20;;;20.80;74.30;;;;;;4220006;28;20266;-69
2022/03/08 10:03:38;;;;;;;4.88;2.22;;;20.90;74.30;;;;;;4222717;28;20263;-70
2022/03/08 10:05:41;;;;;;;3.65;2.25;;;21.00;73.70;;;;;;4220988;28;20287;-70
2022/03/08 10:08:04;;;;;;;3.55;2.15;;;21.00;75.00;;;;;;4221598;28;20213;-69
2022/03/08 10:10:07;;;;;;;3.17;2.13;;;21.10;74.80;;;;;;4220186;28;20217;-69
2022/03/08 10:12:18;;;;;;;5.82;2.40;;;21.00;74.50;;;;;;4219498;28;20218;-70
2022/03/08 10:14:32;;;;;;;3.70;2.97;;;21.00;75.50;;;;;;4221197;28;20213;-70
2022/03/08 10:16:43;;;;;;;3.85;2.55;;;21.10;71.70;;;;;;4219630;28;20267;-71
2022/03/08 10:18:47;;;;;;;9.35;2.33;;;21.10;71.00;;;;;;4220536;28;20214;-70
2022/03/08 10:20:49;;;;;;;3.13;2.40;;;21.00;72.10;;;;;;4219134;28;20210;-70
2022/03/08 10:22:51;;;;;;;7.00;2.65;;;21.10;72.50;;;;;;4221510;28;20210;-71
2022/03/08 10:25:11;;;;;;;7.72;2.55;;;21.10;73.60;;;;;;4222738;28;20213;-71
2022/03/08 10:27:16;;;;;;;4.75;2.30;;;21.10;72.20;;;;;;4221211;28;20823;-72
2022/03/08 10:29:24;;;;;;;4.45;2.53;;;21.20;72.20;;;;;;4222178;28;20210;-71
2022/03/08 10:31:26;;;;;;;9.00;2.60;;;21.20;72.00;;;;;;4219120;28;20251;-71
2022/03/08 10:33:36;;;;;;;7.27;2.80;;;21.30;72.40;;;;;;4221775;28;20766;-70
2022/03/08 10:35:40;;;;;;;15.82;3.25;;;21.20;72.40;;;;;;4217299;28;20209;-70
2022/03/08 10:37:43;;;;;;;13.73;3.10;;;21.40;72.10;;;;;;4222060;28;20263;-70
2022/03/08 10:39:50;;;;;;;7.70;2.80;;;21.40;73.20;;;;;;4220792;28;20254;-70